Flight Track Log - Related Links

Times and Time Zones

All times are in EDT time to prevent confusion due to time zone crossing. See the EJA982 flight status page for this flight to view local times or setup timezone preferences in your user account.


Time Position Orientation Groundspeed Altitude Reporting Facility
EDT Latitude Longitude Course Direction KTS MPH feet Rate Location/Type
Sun 01:07:11 PM 36.0772 -115.1731 271° West 276 318 3,100  Level Los Angeles Center
Sun 01:08:33 PM 36.0789 -115.2614 271° West 212 244 7,100 3,208 Climbing Los Angeles Center
Sun 01:09:35 PM 36.1333 -115.2942 334° Northwest 231 266 10,800 3,339 Climbing Los Angeles Center
Sun 01:10:37 PM 36.1867 -115.2150 50° Northeast 287 330 14,000 2,274 Climbing Los Angeles Center
Sun 01:11:39 PM 36.1981 -115.1000 83° East 348 400 15,500 1,258 Climbing Los Angeles Center
Sun 01:12:41 PM 36.1978 -114.9669 90° East 385 443 16,600 1,355 Climbing Los Angeles Center
Sun 01:13:43 PM 36.1983 -114.8267 90° East 405 466 18,300 1,500 Climbing Los Angeles Center
Sun 01:14:45 PM 36.1972 -114.6842 91° East 414 476 19,700 1,403 Climbing Los Angeles Center
Sun 01:15:47 PM 36.1958 -114.5200 91° East 420 483 21,200 1,200 Climbing Los Angeles Center
Sun 01:16:50 PM 36.1953 -114.3631 90° East 427 491 22,200 864 Climbing Los Angeles Center
Sun 01:17:52 PM 36.1964 -114.2108 89° East 436 502 23,000 774 Climbing Los Angeles Center
Sun 01:18:54 PM 36.2153 -114.0569 81° East 447 514 23,800 919 Climbing Los Angeles Center
Sun 01:19:56 PM 36.2339 -113.9011 82° East 455 524 24,900 1,016 Climbing Los Angeles Center
Sun 01:20:58 PM 36.2522 -113.7417 82° East 463 533 25,900 968 Climbing Los Angeles Center
Sun 01:22:00 PM 36.2739 -113.5500 82° East 468 539 26,900 823 Climbing Los Angeles Center
Sun 01:23:02 PM 36.2922 -113.3858 82° East 478 550 27,600 968 Climbing Los Angeles Center
Sun 01:24:04 PM 36.3133 -113.2250 81° East 483 556 28,900 1,355 Climbing Los Angeles Center
Sun 01:25:06 PM 36.3667 -113.0736 66° East 481 554 30,400 1,152 Climbing Los Angeles Center
Sun 01:26:09 PM 36.4228 -112.9228 65° Northeast 482 555 31,300 1,056 Climbing Los Angeles Center
Sun 01:27:11 PM 36.4917 -112.7378 65° Northeast 492 566 32,600 1,016 Climbing Los Angeles Center
Sun 01:28:13 PM 36.5406 -112.5794 69° East 493 567 33,400 774 Climbing Los Angeles Center
Sun 01:29:15 PM 36.5764 -112.4100 75° East 505 581 34,200 1,065 Climbing Los Angeles Center
Sun 01:30:17 PM 36.6103 -112.2411 76° East 506 582 35,600 1,161 Climbing Los Angeles Center
Sun 01:31:19 PM 36.6450 -112.0731 76° East 505 581 36,600 1,210 Climbing Los Angeles Center
Sun 01:32:21 PM 36.6928 -111.8706 74° East 510 587 38,100 1,161 Climbing Los Angeles Center
Sun 01:33:23 PM 36.7375 -111.7019 72° East 513 590 39,000 435 Climbing Los Angeles Center
Sun 01:34:25 PM 36.8053 -111.5381 63° Northeast 539 620 39,000  Level Los Angeles Center
Sun 01:35:27 PM 36.8522 -111.3578 72° East 545 627 39,000  Level Los Angeles Center
Sun 01:36:29 PM 36.8958 -111.1722 74° East 555 639 39,000  Level Los Angeles Center
Sun 01:37:59 PM 36.9675 -110.8731 73° East 566 651 39,000  Level Denver Center
Sun 01:39:01 PM 37.0125 -110.6850 73° East 568 654 39,000  Level Denver Center
Sun 01:40:04 PM 37.0556 -110.4969 74° East 565 650 39,000  Level Denver Center
Sun 01:41:06 PM 37.0978 -110.3092 74° East 563 648 39,000  Level Denver Center
Sun 01:42:08 PM 37.1464 -110.1078 73° East 570 656 39,000  Level Denver Center
Sun 01:43:10 PM 37.1944 -109.8961 74° East 566 651 39,000  Level Denver Center
Sun 01:44:12 PM 37.2350 -109.7150 74° East 562 647 39,000  Level Denver Center
Sun 01:45:14 PM 37.2831 -109.5017 74° East 565 650 39,000  Level Denver Center
Sun 01:46:16 PM 37.3244 -109.3178 74° East 569 655 39,000  Level Denver Center
Sun 01:47:18 PM 37.3714 -109.1044 74° East 566 651 39,000  Level Denver Center
Sun 01:48:20 PM 37.4064 -108.9186 77° East 568 654 39,000  Level Denver Center
Sun 01:49:22 PM 37.4403 -108.7339 77° East 567 652 39,000  Level Denver Center
Sun 01:50:24 PM 37.4800 -108.5164 77° East 567 652 39,000  Level Denver Center
Sun 01:51:26 PM 37.5139 -108.3289 77° East 571 657 39,000  Level Denver Center
Sun 01:52:28 PM 37.5519 -108.1111 78° East 570 656 39,000  Level Denver Center
Sun 01:53:30 PM 37.5858 -107.9258 77° East 568 654 39,000  Level Denver Center
Sun 01:54:33 PM 37.6242 -107.7094 77° East 567 652 39,000  Level Denver Center
Sun 01:55:35 PM 37.6561 -107.5217 78° East 569 655 39,000  Level Denver Center
Sun 01:56:37 PM 37.6939 -107.3031 78° East 571 657 39,000  Level Denver Center
Sun 01:57:39 PM 37.7256 -107.1164 78° East 569 655 39,000  Level Denver Center
Sun 01:58:41 PM 37.7625 -106.8975 78° East 570 656 39,000  Level Denver Center
Sun 01:59:43 PM 37.7903 -106.7094 79° East 569 655 39,000  Level Denver Center
Sun 02:00:45 PM 37.8050 -106.4858 85° East 571 657 39,000  Level Denver Center
Sun 02:01:47 PM 37.8092 -106.2939 88° East 571 657 39,000  Level Denver Center
Sun 02:02:49 PM 37.7983 -106.1031 94° East 571 657 39,000  Level Denver Center
Sun 02:03:51 PM 37.8100 -105.8783 86° East 571 657 39,000  Level Denver Center
Sun 02:04:53 PM 37.8414 -105.6900 78° East 573 659 39,000  Level Denver Center
Sun 02:05:55 PM 37.8783 -105.4711 78° East 570 656 39,000  Level Denver Center
Sun 02:06:57 PM 37.9106 -105.2814 78° East 573 659 39,000  Level Denver Center
Sun 02:08:00 PM 37.9478 -105.0597 78° East 577 664 39,000  Level Denver Center
Sun 02:09:02 PM 37.9786 -104.8714 78° East 570 656 39,000  Level Denver Center
Sun 02:10:04 PM 38.0156 -104.6506 78° East 572 658 39,000  Level Denver Center
Sun 02:11:06 PM 38.0456 -104.4625 78° East 568 654 39,000  Level Denver Center
Sun 02:12:08 PM 38.0797 -104.2417 79° East 568 654 39,000  Level Denver Center
Sun 02:13:10 PM 38.1100 -104.0508 79° East 571 657 39,000  Level Denver Center
Sun 02:14:12 PM 38.1394 -103.8600 79° East 572 658 39,000  Level Denver Center
Sun 02:15:14 PM 38.1739 -103.6361 79° East 575 662 39,000  Level Denver Center
Sun 02:16:16 PM 38.2025 -103.4453 79° East 574 661 39,000  Level Denver Center
Sun 02:17:18 PM 38.2356 -103.2222 79° East 573 659 39,000  Level Denver Center
Sun 02:18:20 PM 38.2669 -103.0117 79° East 575 662 39,000  Level Denver Center
Sun 02:19:34 PM 38.2958 -102.8197 79° East 577 664 39,000  Level Denver Center
Sun 02:20:37 PM 38.3317 -102.5647 80° East 575 662 39,000  Level Denver Center
Sun 02:21:39 PM 38.3578 -102.3739 80° East 573 659 39,000  Level Denver Center
Sun 02:22:41 PM 38.3892 -102.1511 80° East 571 657 39,000  Level Denver Center
Sun 02:23:43 PM 38.4147 -101.9600 80° East 571 657 39,000  Level Denver Center
Sun 02:24:45 PM 38.4464 -101.7364 80° East 573 659 39,000  Level Denver Center
Sun 02:25:47 PM 38.4717 -101.5439 80° East 572 658 39,000  Level Denver Center
Sun 02:26:49 PM 38.5011 -101.3203 80° East 571 657 39,000  Level Denver Center
Sun 02:27:51 PM 38.5264 -101.1283 80° East 571 657 39,000  Level Denver Center
Sun 02:28:53 PM 38.5508 -100.9347 81° East 574 661 39,000  Level Denver Center
Sun 02:29:56 PM 38.5797 -100.7122 81° East 567 652 39,000  Level Denver Center
Sun 02:30:41 PM 38.5992 -100.5500 81° East 569 655 39,000  Level Kansas City Center
Sun 02:31:43 PM 38.6225 -100.3581 81° East 569 655 39,000  Level Kansas City Center
Sun 02:32:45 PM 38.6458 -100.1661 81° East 569 655 39,000  Level Kansas City Center
Sun 02:33:47 PM 38.6725 -99.9436 81° East 568 654 39,000  Level Kansas City Center
Sun 02:34:49 PM 38.6958 -99.7503 81° East 572 658 39,000  Level Kansas City Center
Sun 02:35:51 PM 38.7211 -99.5272 82° East 568 654 39,000  Level Kansas City Center
Sun 02:36:53 PM 38.7406 -99.3514 82° East 568 654 39,000  Level Kansas City Center
Sun 02:37:55 PM 38.7694 -99.1092 81° East 574 661 39,000  Level Kansas City Center
Sun 02:38:57 PM 38.7911 -98.9089 82° East 568 654 39,000  Level Kansas City Center
Sun 02:39:59 PM 38.8133 -98.7078 82° East 566 651 39,000  Level Kansas City Center
Sun 02:41:01 PM 38.8350 -98.5069 82° East 567 652 39,000  Level Kansas City Center
Sun 02:42:03 PM 38.8569 -98.3050 82° East 571 657 39,000  Level Kansas City Center
Sun 02:43:05 PM 38.8772 -98.1044 83° East 567 652 39,000  Level Kansas City Center
Sun 02:44:07 PM 38.8978 -97.9028 82° East 567 652 39,000  Level Kansas City Center
Sun 02:45:09 PM 38.9228 -97.6606 82° East 561 646 39,000  Level Kansas City Center
Sun 02:46:11 PM 38.9664 -97.4689 74° East 569 655 39,000  Level Kansas City Center
Sun 02:47:13 PM 39.0122 -97.2936 71° East 558 642 39,000  Level Kansas City Center
Sun 02:48:15 PM 39.0694 -97.0839 71° East 555 639 39,000  Level Kansas City Center
Sun 02:49:17 PM 39.1175 -96.9047 71° East 554 638 39,000  Level Kansas City Center
Sun 02:50:19 PM 39.1706 -96.6931 72° East 556 640 39,000  Level Kansas City Center
Sun 02:51:21 PM 39.2167 -96.5119 72° East 555 639 39,000  Level Kansas City Center
Sun 02:52:23 PM 39.2697 -96.2975 72° East 552 635 39,000  Level Kansas City Center
Sun 02:53:25 PM 39.3147 -96.1186 72° East 553 636 39,000  Level Kansas City Center
Sun 02:54:28 PM 39.3678 -95.9056 72° East 556 640 39,000  Level Kansas City Center
Sun 02:55:29 PM 39.4139 -95.7228 72° East 556 640 39,000  Level Kansas City Center
Sun 02:56:31 PM 39.4589 -95.5369 73° East 560 644 39,000  Level Kansas City Center
Sun 02:57:33 PM 39.5153 -95.3081 72° East 556 640 39,000  Level Kansas City Center
Sun 02:58:36 PM 39.5567 -95.1356 73° East 558 642 39,000  Level Kansas City Center
Sun 02:59:38 PM 39.6078 -94.9200 73° East 556 640 39,000  Level Kansas City Center
Sun 03:00:40 PM 39.6528 -94.7350 72° East 558 642 39,000  Level Kansas City Center
Sun 03:01:42 PM 39.7039 -94.5172 73° East 563 648 39,000  Level Kansas City Center
Sun 03:02:44 PM 39.7472 -94.3311 73° East 561 646 39,000  Level Kansas City Center
Sun 03:03:46 PM 39.7900 -94.1436 73° East 563 648 39,000  Level Kansas City Center
Sun 03:04:48 PM 39.8381 -93.9258 74° East 564 649 39,000  Level Kansas City Center
Sun 03:05:50 PM 39.8819 -93.7344 73° East 559 643 39,000  Level Kansas City Center
Sun 03:06:52 PM 39.9247 -93.5428 74° East 556 640 39,000  Level Kansas City Center
Sun 03:07:54 PM 39.9686 -93.3483 74° East 562 647 39,000  Level Kansas City Center
Sun 03:08:56 PM 40.0206 -93.1167 74° East 563 648 39,000  Level Kansas City Center
Sun 03:09:58 PM 40.0625 -92.9233 74° East 562 647 39,000  Level Kansas City Center
Sun 03:11:00 PM 40.1072 -92.7114 75° East 560 644 39,000  Level Kansas City Center
Sun 03:12:02 PM 40.1478 -92.5206 74° East 565 650 39,000  Level Kansas City Center
Sun 03:13:04 PM 40.1931 -92.3097 74° East 561 646 39,000  Level Kansas City Center
Sun 03:14:06 PM 40.2328 -92.1167 75° East 560 644 39,000  Level Kansas City Center
Sun 03:15:08 PM 40.2722 -91.9197 75° East 565 650 39,000  Level Kansas City Center
Sun 03:16:10 PM 40.3108 -91.7231 76° East 565 650 39,000  Level Kansas City Center
Sun 03:17:12 PM 40.3583 -91.4847 75° East 568 654 39,000  Level Kansas City Center
Sun 03:18:14 PM 40.3983 -91.2850 75° East 570 656 39,000  Level Kansas City Center
Sun 03:19:16 PM 40.4403 -91.0700 76° East 569 655 39,000  Level Kansas City Center
Sun 03:20:18 PM 40.4778 -90.8694 76° East 567 652 39,000  Level Kansas City Center
Sun 03:21:20 PM 40.5167 -90.6689 76° East 567 652 39,000  Level Kansas City Center
Sun 03:22:22 PM 40.5556 -90.4678 76° East 567 652 39,000  Level Kansas City Center
Sun 03:23:24 PM 40.5931 -90.2669 76° East 568 654 39,000  Level Kansas City Center
Sun 03:24:26 PM 40.6333 -90.0492 76° East 568 654 39,000  Level Kansas City Center
Sun 03:25:28 PM 40.6725 -89.8375 76° East 568 654 39,000  Level Kansas City Center
Sun 03:26:30 PM 40.7019 -89.6283 79° East 573 659 39,000  Level Kansas City Center
Sun 03:27:32 PM 40.7292 -89.4294 80° East 570 656 39,000  Level Kansas City Center
Sun 03:28:34 PM 40.7617 -89.1856 80° East 566 651 39,000  Level Kansas City Center
Sun 03:29:50 PM 40.7947 -88.9397 80° East 569 655 39,000  Level Chicago Center
Sun 03:30:52 PM 40.8233 -88.7342 80° East 570 656 39,000  Level Chicago Center
Sun 03:31:54 PM 40.8731 -88.5414 71° East 552 635 39,000  Level Chicago Center
Sun 03:32:56 PM 40.9250 -88.3511 70° East 552 635 39,000  Level Chicago Center
Sun 03:33:58 PM 40.9869 -88.1239 70° East 548 631 39,000  Level Chicago Center
Sun 03:35:00 PM 41.0378 -87.9347 70° East 548 631 39,000  Level Chicago Center
Sun 03:36:02 PM 41.0878 -87.7450 71° East 545 627 39,000  Level Chicago Center
Sun 03:37:04 PM 41.1378 -87.5542 71° East 548 631 39,000  Level Chicago Center
Sun 03:38:06 PM 41.1844 -87.3767 71° East 545 627 39,000  Level Chicago Center
Sun 03:39:08 PM 41.2442 -87.1467 71° East 548 631 39,000  Level Chicago Center
Sun 03:40:11 PM 41.2931 -86.9556 71° East 549 632 39,000  Level Chicago Center
Sun 03:41:13 PM 41.3417 -86.7633 71° East 550 633 39,000  Level Chicago Center
Sun 03:42:15 PM 41.3906 -86.5689 71° East 552 635 39,000  Level Chicago Center
Sun 03:43:17 PM 41.4394 -86.3758 71° East 552 635 39,000  Level Chicago Center
Sun 03:44:19 PM 41.4975 -86.1436 71° East 552 635 39,000  Level Chicago Center
Sun 03:45:21 PM 41.5522 -85.9528 69° East 553 636 39,000  Level Chicago Center
Sun 03:46:23 PM 41.6211 -85.7731 63° Northeast 547 629 39,000 -242 Level Chicago Center
Sun 03:47:25 PM 41.6911 -85.5900 63° Northeast 545 627 38,500 -480 Descending Chicago Center
Sun 03:48:28 PM 41.7619 -85.3956 64° Northeast 558 642 38,000 -339 Descending Chicago Center
Sun 03:49:29 PM 41.8317 -85.2075 63° Northeast 556 640 37,800 -390 Descending Chicago Center
Sun 03:50:31 PM 41.9003 -85.0194 64° Northeast 559 643 37,200 -387 Descending Chicago Center
Sun 03:51:33 PM 41.9689 -84.8314 64° Northeast 561 646 37,000 -97 Descending Chicago Center
Sun 03:52:35 PM 42.0414 -84.6306 64° Northeast 554 638 37,000  Level Chicago Center
Sun 03:53:38 PM 42.1081 -84.4447 64° Northeast 553 636 37,000  Level Chicago Center
Sun 03:54:21 PM 42.1628 -84.2894 65° Northeast 550 633 37,000  Level Cleveland Center
Sun 03:55:21 PM 42.2292 -84.0997 65° Northeast 550 633 37,000 -450 Level Cleveland Center
Sun 03:56:21 PM 42.2953 -83.9125 64° Northeast 550 633 36,100 -1,000 Descending Cleveland Center
Sun 03:57:21 PM 42.3653 -83.7194 64° Northeast 556 640 35,000 -550 Descending Cleveland Center
Sun 03:58:21 PM 42.4200 -83.5450 67° East 556 640 35,000  Level Cleveland Center
Sun 03:59:21 PM 42.4750 -83.3478 69° East 556 640 35,000  Level Cleveland Center
Sun 04:00:21 PM 42.5253 -83.1525 71° East 551 634 35,000 -200 Level Cleveland Center
Sun 04:01:21 PM 42.5775 -82.9544 70° East 551 634 34,600 -1,100 Descending Cleveland Center
Sun 04:02:21 PM 42.6294 -82.7533 71° East 551 634 32,800 -2,100 Descending Cleveland Center
Sun 04:03:21 PM 42.6831 -82.5489 70° East 563 648 30,400 -1,750 Descending Cleveland Center
Sun 04:04:21 PM 42.7364 -82.3472 70° East 563 648 29,300 -700 Descending Cleveland Center
Sun 04:05:21 PM 42.7850 -82.1533 71° East 556 640 29,000 -150 Descending Cleveland Center
Sun 04:06:21 PM 42.8417 -81.9564 69° East 556 640 29,000  Level Cleveland Center
Sun 04:07:02 PM 42.9000 -81.8000 63° Northeast 560 644 29,000 -535 Level Toronto Center
Sun 04:08:02 PM 42.9667 -81.6167 64° Northeast 550 633 28,100 -1,700 Descending Toronto Center
Sun 04:09:02 PM 43.0333 -81.4167 65° Northeast 550 633 25,600 -2,200 Descending Toronto Center
Sun 04:10:02 PM 43.1000 -81.2500 61° Northeast 530 610 23,700 -1,800 Descending Toronto Center
Sun 04:11:02 PM 43.1667 -81.0667 63° Northeast 520 598 22,000 -1,950 Descending Toronto Center
Sun 04:12:02 PM 43.2333 -80.9167 59° Northeast 500 575 19,800 -2,250 Descending Toronto Center
Sun 04:13:02 PM 43.3000 -80.7500 61° Northeast 490 564 17,500 -2,350 Descending Toronto Center
Sun 04:14:02 PM 43.3667 -80.6000 59° Northeast 470 541 15,100 -2,100 Descending Toronto Center
Sun 04:15:02 PM 43.4167 -80.4333 68° East 430 495 13,300 -1,050 Descending Toronto Center
Sun 04:16:02 PM 43.4667 -80.3167 59° Northeast 360 414 13,000 -300 Descending Toronto Center
Sun 04:17:02 PM 43.5000 -80.2000 68° East 340 391 12,700 -700 Descending Toronto Center
Sun 04:18:02 PM 43.5167 -80.1000 77° East 340 391 11,600 -1,200 Descending Toronto Center
Sun 04:19:02 PM 43.5500 -79.9833 68° East 330 380 10,300 -1,550 Descending Toronto Center
Sun 04:20:02 PM 43.5833 -79.8667 68° East 310 357 8,500 -1,150 Descending Toronto Center
Sun 04:21:02 PM 43.6500 -79.8000 36° Northeast 280 322 8,000 -250 Descending Toronto Center
Sun 04:22:02 PM 43.7167 -79.7333 36° Northeast 270 311 8,000 -500 Level Toronto Center
Sun 04:23:02 PM 43.7667 -79.6833 36° Northeast 250 288 7,000 -1,350 Descending Toronto Center
Sun 04:24:02 PM 43.8000 -79.6167 55° Northeast 240 276 5,300 -1,750 Descending Toronto Center
Sun 04:25:02 PM 43.8333 -79.5167 65° Northeast 230 265 3,500 -1,150 Descending Toronto Center
Sun 04:26:02 PM 43.7833 -79.5000 166° South 180 207 3,000 -550 Descending Toronto Center
Sun 04:27:02 PM 43.7500 -79.5167 200° South 170 196 2,400 -650 Descending Toronto Center
Sun 04:28:02 PM 43.7167 -79.5667 227° Southwest 150 173 1,700 -700 Descending Toronto Center
Sun 04:29:02 PM 43.7000 -79.5833 216° Southwest 130 150 1,000 -550 Descending Toronto Center
Sun 04:30:02 PM 43.6833 -79.6333 245° Southwest 120 138 600 -400 Descending Toronto Center

Login

Don't have an account? Register now (free) for customized features, flight alerts, and more!